createdAt,value
2018-12-15T00:01:35.809Z,4.66
2018-12-15T00:04:06.179Z,4.78
2018-12-15T00:06:36.652Z,5.00
2018-12-15T00:09:08.387Z,5.03
2018-12-15T00:11:39.131Z,4.99
2018-12-15T00:14:09.692Z,5.11
2018-12-15T00:16:40.522Z,5.11
2018-12-15T00:19:11.427Z,5.19
2018-12-15T00:21:42.594Z,5.21
2018-12-15T00:24:13.263Z,5.14
2018-12-15T00:26:43.689Z,4.87
2018-12-15T00:29:15.423Z,4.58
2018-12-15T00:31:46.377Z,4.84
2018-12-15T00:34:16.906Z,4.69
2018-12-15T00:36:47.826Z,4.96
2018-12-15T00:39:18.966Z,4.99
2018-12-15T00:41:49.645Z,5.03
2018-12-15T00:44:20.455Z,5.10
2018-12-15T00:46:51.474Z,5.16
2018-12-15T00:49:22.999Z,5.17
2018-12-15T00:51:53.520Z,5.10
2018-12-15T00:54:24.481Z,4.95
2018-12-15T00:56:55.125Z,4.85
2018-12-15T00:59:25.748Z,5.02
2018-12-15T01:01:56.389Z,5.13
2018-12-15T01:04:27.334Z,5.18
2018-12-15T01:06:58.029Z,5.22
2018-12-15T01:09:30.916Z,5.29
2018-12-15T01:12:01.236Z,5.33
2018-12-15T01:14:32.368Z,5.21
2018-12-15T01:17:02.762Z,5.09
2018-12-15T01:19:33.573Z,4.96
2018-12-15T01:22:04.372Z,4.45
2018-12-15T01:24:35.575Z,4.78
2018-12-15T01:27:06.599Z,4.95
2018-12-15T01:29:38.509Z,5.14
2018-12-15T01:32:09.022Z,5.25
2018-12-15T01:34:39.486Z,5.44
2018-12-15T01:37:10.209Z,5.24
2018-12-15T01:39:41.774Z,5.07
2018-12-15T01:42:13.020Z,5.13
2018-12-15T01:44:43.992Z,4.86
2018-12-15T01:47:14.850Z,4.96
2018-12-15T01:49:46.490Z,5.05
2018-12-15T01:52:17.087Z,5.07
2018-12-15T01:54:47.419Z,5.17
2018-12-15T01:57:17.882Z,5.36
2018-12-15T01:59:48.992Z,5.28
2018-12-15T02:02:19.513Z,5.33
2018-12-15T02:04:49.923Z,5.23
2018-12-15T02:07:21.087Z,5.01
2018-12-15T02:09:55.593Z,5.00
2018-12-15T02:12:26.428Z,5.04
2018-12-15T02:14:57.322Z,4.61
2018-12-15T02:17:33.458Z,4.94
2018-12-15T02:20:04.836Z,5.11
2018-12-15T02:22:35.955Z,5.22
2018-12-15T02:25:06.714Z,5.34
2018-12-15T02:27:37.316Z,5.20
2018-12-15T02:30:08.888Z,4.90
2018-12-15T02:32:39.697Z,4.78
2018-12-15T02:35:10.635Z,4.86
2018-12-15T02:37:41.567Z,5.03
2018-12-15T02:40:13.056Z,5.04
2018-12-15T02:42:43.759Z,4.87
2018-12-15T02:45:14.790Z,4.93
2018-12-15T02:47:45.825Z,4.87
2018-12-15T02:50:17.127Z,4.77
2018-12-15T02:52:47.921Z,4.60
2018-12-15T02:55:18.490Z,4.95
2018-12-15T02:57:49.238Z,5.03
2018-12-15T03:00:20.575Z,4.97
2018-12-15T03:02:51.488Z,4.85
2018-12-15T03:05:21.800Z,4.95
2018-12-15T03:07:52.049Z,5.08
2018-12-15T03:10:23.113Z,5.01
2018-12-15T03:12:53.324Z,5.12
2018-12-15T03:15:24.046Z,5.10
2018-12-15T03:17:55.230Z,5.11
2018-12-15T03:20:26.282Z,5.09
2018-12-15T03:22:56.889Z,5.13
2018-12-15T03:25:28.050Z,5.01
2018-12-15T03:27:59.166Z,4.78
2018-12-15T03:30:30.238Z,4.99
2018-12-15T03:33:00.909Z,5.05
2018-12-15T03:35:31.558Z,5.05
2018-12-15T03:38:02.651Z,4.96
2018-12-15T03:40:33.522Z,4.94
2018-12-15T03:43:03.996Z,4.87
2018-12-15T03:45:34.971Z,4.85
2018-12-15T03:48:05.888Z,4.83
2018-12-15T03:50:37.846Z,4.88
2018-12-15T03:53:08.298Z,4.83
2018-12-15T03:55:38.943Z,4.83
2018-12-15T03:58:09.536Z,4.73
2018-12-15T04:00:40.492Z,4.88
2018-12-15T04:03:10.727Z,5.04
2018-12-15T04:05:41.401Z,5.06
2018-12-15T04:08:11.699Z,5.16
2018-12-15T04:10:43.404Z,5.10
2018-12-15T04:13:14.134Z,4.86
2018-12-15T04:15:44.653Z,5.08
2018-12-15T04:18:15.064Z,5.23
2018-12-15T04:20:46.367Z,5.20
2018-12-15T04:23:17.253Z,5.22
2018-12-15T04:25:48.060Z,5.03
2018-12-15T04:28:18.688Z,4.78
2018-12-15T04:30:49.842Z,5.01
2018-12-15T04:33:20.511Z,5.15
2018-12-15T04:35:51.034Z,5.09
2018-12-15T04:38:21.530Z,5.08
2018-12-15T04:40:52.805Z,4.83
2018-12-15T04:43:23.599Z,5.03
2018-12-15T04:45:54.440Z,4.80
2018-12-15T04:48:26.046Z,4.78
2018-12-15T04:50:57.262Z,4.97
2018-12-15T04:53:28.690Z,5.06
2018-12-15T04:55:59.289Z,5.19
2018-12-15T04:58:29.780Z,5.25
2018-12-15T05:01:01.564Z,5.20
2018-12-15T05:03:32.328Z,5.09
2018-12-15T05:06:03.160Z,5.00
2018-12-15T05:08:33.556Z,4.70
2018-12-15T05:11:05.791Z,4.29
2018-12-15T05:13:36.444Z,4.40
2018-12-15T05:16:07.474Z,4.67
2018-12-15T05:18:38.432Z,4.90
2018-12-15T05:21:10.143Z,5.13
2018-12-15T05:23:41.318Z,5.06
2018-12-15T05:26:11.718Z,4.73
2018-12-15T05:28:42.131Z,4.26
2018-12-15T05:31:13.790Z,4.53
2018-12-15T05:33:44.004Z,4.66
2018-12-15T05:36:15.269Z,4.65
2018-12-15T05:38:45.650Z,4.51
2018-12-15T05:41:17.356Z,4.57
2018-12-15T05:43:48.010Z,4.65
2018-12-15T05:46:19.037Z,4.59
2018-12-15T05:48:49.788Z,4.70
2018-12-15T05:51:21.136Z,4.78
2018-12-15T05:53:51.526Z,4.65
2018-12-15T05:56:22.316Z,4.68
2018-12-15T05:58:52.905Z,4.91
2018-12-15T06:01:23.586Z,4.98
2018-12-15T06:03:53.931Z,4.84
2018-12-15T06:06:24.723Z,4.67
2018-12-15T06:08:55.093Z,4.77
2018-12-15T06:11:26.054Z,4.89
2018-12-15T06:13:56.138Z,5.03
2018-12-15T06:16:26.583Z,4.97
2018-12-15T06:18:57.287Z,4.92
2018-12-15T06:21:28.810Z,4.92
2018-12-15T06:23:59.545Z,4.87
2018-12-15T06:26:29.854Z,4.91
2018-12-15T06:28:59.984Z,4.83
2018-12-15T06:31:30.374Z,4.63
2018-12-15T06:34:01.041Z,4.88
2018-12-15T06:36:31.535Z,5.12
2018-12-15T06:39:01.951Z,5.11
2018-12-15T06:41:32.893Z,5.13
2018-12-15T06:44:03.156Z,5.15
2018-12-15T06:46:33.581Z,5.22
2018-12-15T06:49:03.918Z,5.22
2018-12-15T06:51:37.444Z,5.10
2018-12-15T06:54:07.910Z,5.00
2018-12-15T06:56:38.220Z,4.94
2018-12-15T06:59:08.884Z,5.31
2018-12-15T07:01:40.406Z,5.12
2018-12-15T07:04:10.952Z,5.06
2018-12-15T07:06:42.125Z,4.97
2018-12-15T07:09:12.830Z,4.36
2018-12-15T07:11:44.150Z,4.09
2018-12-15T07:14:14.490Z,4.22
2018-12-15T07:16:44.982Z,4.56
2018-12-15T07:19:16.062Z,4.71
2018-12-15T07:21:47.637Z,4.94
2018-12-15T07:24:17.864Z,4.95
2018-12-15T07:26:48.258Z,4.67
2018-12-15T07:29:18.575Z,4.68
2018-12-15T07:31:49.497Z,4.77
2018-12-15T07:34:19.955Z,4.74
2018-12-15T07:36:50.656Z,4.97
2018-12-15T07:39:21.191Z,5.03
2018-12-15T07:41:51.844Z,5.06
2018-12-15T07:44:22.372Z,4.93
2018-12-15T07:46:52.694Z,5.02
2018-12-15T07:49:22.924Z,5.10
2018-12-15T07:51:53.564Z,5.09
2018-12-15T07:54:23.816Z,5.09
2018-12-15T07:56:54.105Z,5.14
2018-12-15T07:59:24.531Z,5.17
2018-12-15T08:01:56.169Z,5.22
2018-12-15T08:04:26.181Z,5.41
2018-12-15T08:06:56.492Z,5.51
2018-12-15T08:09:26.958Z,5.35
2018-12-15T08:12:02.446Z,5.14
2018-12-15T08:14:32.899Z,5.30
2018-12-15T08:17:03.409Z,5.31
2018-12-15T08:19:34.092Z,5.43
2018-12-15T08:22:04.781Z,5.42
2018-12-15T08:24:35.172Z,5.52
2018-12-15T08:27:05.544Z,5.50
2018-12-15T08:29:35.953Z,5.77
2018-12-15T08:32:06.672Z,5.49
2018-12-15T08:34:37.139Z,5.48
2018-12-15T08:37:07.544Z,5.59
2018-12-15T08:39:37.634Z,5.58
2018-12-15T08:42:08.428Z,5.36
2018-12-15T08:44:38.700Z,5.50
2018-12-15T08:47:09.015Z,5.52
2018-12-15T08:49:39.510Z,5.51
2018-12-15T08:52:10.912Z,5.83
2018-12-15T08:54:41.443Z,5.38
2018-12-15T08:57:16.015Z,5.75
2018-12-15T08:59:46.373Z,5.85
2018-12-15T09:02:17.175Z,5.95
2018-12-15T09:04:47.706Z,6.14
2018-12-15T09:07:17.852Z,6.36
2018-12-15T09:09:48.503Z,6.23
2018-12-15T09:12:21.088Z,6.29
2018-12-15T09:14:52.354Z,6.43
2018-12-15T09:17:23.080Z,6.30
2018-12-15T09:19:53.585Z,6.47
2018-12-15T09:22:24.190Z,6.58
2018-12-15T09:24:55.645Z,6.62
2018-12-15T09:27:26.972Z,6.63
2018-12-15T09:29:57.218Z,6.56
2018-12-15T09:32:28.745Z,6.37
2018-12-15T09:34:59.779Z,6.60
2018-12-15T09:37:30.687Z,6.48
2018-12-15T09:40:01.324Z,6.53
2018-12-15T09:42:32.900Z,5.96
2018-12-15T09:45:03.796Z,6.13
2018-12-15T09:47:34.235Z,6.28
2018-12-15T09:50:04.962Z,6.15
2018-12-15T09:52:35.700Z,5.82
2018-12-15T09:55:06.558Z,6.11
2018-12-15T09:57:37.408Z,6.19
2018-12-15T10:00:08.040Z,5.94
2018-12-15T10:02:39.756Z,5.88
2018-12-15T10:05:10.489Z,6.09
2018-12-15T10:07:41.979Z,6.02
2018-12-15T10:10:12.885Z,6.14
2018-12-15T10:12:44.343Z,6.15
2018-12-15T10:15:14.715Z,6.33
2018-12-15T10:17:45.076Z,6.07
2018-12-15T10:20:15.535Z,6.33
2018-12-15T10:22:47.397Z,5.75
2018-12-15T10:25:17.667Z,6.55
2018-12-15T10:27:47.987Z,6.62
2018-12-15T10:30:23.253Z,6.52
2018-12-15T10:32:55.223Z,6.17
2018-12-15T10:35:26.144Z,5.95
2018-12-15T10:37:56.583Z,5.77
2018-12-15T10:40:26.788Z,5.78
2018-12-15T10:42:57.668Z,6.15
2018-12-15T10:45:28.046Z,6.39
2018-12-15T10:47:58.598Z,6.28
2018-12-15T10:50:29.158Z,6.32
2018-12-15T10:53:00.228Z,6.47
2018-12-15T10:55:37.412Z,6.78
2018-12-15T10:58:07.633Z,6.32
2018-12-15T11:01:45.271Z,6.83
2018-12-15T11:04:15.888Z,6.52
2018-12-15T11:06:46.276Z,6.66
2018-12-15T11:09:16.936Z,7.12
2018-12-15T11:11:47.155Z,7.28
2018-12-15T11:14:21.465Z,7.37
2018-12-15T11:16:51.960Z,7.37
2018-12-15T11:19:22.207Z,7.56
2018-12-15T11:21:52.703Z,7.35
2018-12-15T11:24:23.259Z,7.34
2018-12-15T11:26:54.001Z,5.70
2018-12-15T11:29:24.141Z,7.18
2018-12-15T11:31:54.440Z,6.98
2018-12-15T11:34:26.004Z,6.96
2018-12-15T11:36:56.421Z,7.06
2018-12-15T11:39:27.156Z,6.84
2018-12-15T11:41:57.812Z,7.09
2018-12-15T11:44:28.927Z,7.08
2018-12-15T11:46:59.463Z,7.10
2018-12-15T11:49:30.195Z,7.08
2018-12-15T11:52:00.615Z,6.91
2018-12-15T11:54:31.588Z,6.99
2018-12-15T11:57:02.359Z,7.00
2018-12-15T11:59:33.232Z,7.08
2018-12-15T12:02:03.983Z,7.10
2018-12-15T12:04:34.903Z,6.87
2018-12-15T12:07:05.516Z,6.98
2018-12-15T12:09:36.013Z,7.04
2018-12-15T12:12:06.795Z,7.24
2018-12-15T12:14:37.344Z,7.38
2018-12-15T12:17:07.650Z,7.32
2018-12-15T12:19:38.069Z,7.06
2018-12-15T12:22:08.579Z,7.00
2018-12-15T12:24:39.004Z,6.81
2018-12-15T12:27:09.596Z,6.81
2018-12-15T12:29:40.180Z,6.38
2018-12-15T12:32:10.612Z,6.09
2018-12-15T12:34:41.731Z,6.12
2018-12-15T12:37:12.259Z,6.11
2018-12-15T12:39:42.951Z,6.35
2018-12-15T12:42:13.343Z,6.42
2018-12-15T12:44:44.122Z,6.42
2018-12-15T12:47:14.262Z,6.35
2018-12-15T12:49:44.834Z,6.29
2018-12-15T12:52:15.354Z,6.35
2018-12-15T12:54:46.783Z,6.20
2018-12-15T12:57:17.479Z,6.08
2018-12-15T12:59:47.779Z,6.07
2018-12-15T13:02:18.056Z,6.24
2018-12-15T13:04:48.618Z,6.26
2018-12-15T13:07:19.014Z,5.61
2018-12-15T13:09:49.439Z,5.70
2018-12-15T13:12:20.111Z,5.72
2018-12-15T13:14:50.980Z,5.84
2018-12-15T13:17:21.412Z,6.23
2018-12-15T13:19:52.058Z,6.26
2018-12-15T13:22:22.626Z,6.47
2018-12-15T13:24:53.342Z,6.32
2018-12-15T13:27:23.959Z,6.34
2018-12-15T13:29:54.917Z,6.00
2018-12-15T13:32:25.549Z,5.86
2018-12-15T13:34:56.272Z,5.89
2018-12-15T13:37:26.907Z,5.97
2018-12-15T13:39:57.462Z,6.04
2018-12-15T13:42:28.072Z,6.27
2018-12-15T13:44:59.975Z,6.31
2018-12-15T13:47:30.419Z,6.16
2018-12-15T13:50:01.180Z,6.05
2018-12-15T13:52:31.840Z,6.17
2018-12-15T13:55:02.774Z,6.02
2018-12-15T13:57:33.324Z,6.19
2018-12-15T14:00:04.270Z,6.36
2018-12-15T14:02:34.529Z,6.38
2018-12-15T14:05:05.167Z,6.42
2018-12-15T14:07:35.434Z,6.47
2018-12-15T14:10:06.001Z,6.47
2018-12-15T14:12:36.578Z,6.31
2018-12-15T14:15:08.421Z,6.12
2018-12-15T14:17:38.892Z,6.43
2018-12-15T14:20:09.580Z,6.50
2018-12-15T14:22:40.196Z,6.35
2018-12-15T14:25:10.854Z,6.25
2018-12-15T14:27:41.578Z,6.37
2018-12-15T14:30:12.279Z,6.05
2018-12-15T14:32:42.852Z,5.92
2018-12-15T14:35:13.460Z,5.83
2018-12-15T14:37:43.987Z,5.86
2018-12-15T14:40:14.410Z,6.00
2018-12-15T14:42:44.984Z,5.79
2018-12-15T14:45:16.086Z,5.74
2018-12-15T14:47:46.409Z,5.82
2018-12-15T14:50:23.171Z,6.21
2018-12-15T14:52:48.898Z,6.38
2018-12-15T14:55:19.743Z,6.21
2018-12-15T14:57:50.399Z,6.27
2018-12-15T15:00:20.741Z,6.18
2018-12-15T15:02:51.384Z,6.22
2018-12-15T15:05:22.564Z,6.19
2018-12-15T15:07:52.996Z,6.15
2018-12-15T15:10:23.389Z,6.25
2018-12-15T15:12:53.692Z,6.36
2018-12-15T15:15:24.667Z,6.30
2018-12-15T15:17:55.096Z,6.26
2018-12-15T15:20:29.745Z,6.35
2018-12-15T15:22:58.110Z,6.47
2018-12-15T15:25:28.647Z,6.26
2018-12-15T15:27:59.308Z,6.25
2018-12-15T15:30:29.911Z,5.97
2018-12-15T15:33:00.175Z,6.02
2018-12-15T15:35:31.683Z,6.16
2018-12-15T15:38:33.648Z,5.98
2018-12-15T15:41:04.094Z,5.84
2018-12-15T15:43:34.512Z,5.87
2018-12-15T15:46:04.975Z,5.86
2018-12-15T15:48:35.315Z,5.81
2018-12-15T15:51:06.101Z,5.82
2018-12-15T15:53:37.026Z,5.76
2018-12-15T15:56:07.769Z,5.69
2018-12-15T15:58:37.840Z,5.70
2018-12-15T16:01:07.550Z,5.52
2018-12-15T16:03:38.022Z,5.68
2018-12-15T16:06:07.886Z,5.52
2018-12-15T16:08:37.698Z,5.47
2018-12-15T16:11:07.439Z,5.63
2018-12-15T16:13:37.111Z,5.76
2018-12-15T16:16:16.503Z,5.90
2018-12-15T16:18:46.292Z,5.85
2018-12-15T16:21:15.951Z,5.91
2018-12-15T16:23:46.278Z,5.84
2018-12-15T16:26:15.979Z,5.74
2018-12-15T16:28:45.753Z,5.74
2018-12-15T16:31:15.339Z,5.75
2018-12-15T16:33:45.083Z,5.77
2018-12-15T16:36:14.844Z,5.95
2018-12-15T16:38:44.547Z,5.70
2018-12-15T16:41:14.239Z,5.89
2018-12-15T16:43:43.912Z,6.07
2018-12-15T16:46:13.563Z,6.02
2018-12-15T16:48:43.382Z,5.94
2018-12-15T16:51:13.114Z,5.88
2018-12-15T16:53:42.889Z,5.87
2018-12-15T16:56:12.564Z,5.70
2018-12-15T16:58:42.835Z,5.74
2018-12-15T17:01:12.532Z,5.92
2018-12-15T17:03:42.201Z,5.81
2018-12-15T17:06:11.788Z,5.90
2018-12-15T17:08:41.423Z,6.02
2018-12-15T17:11:11.101Z,6.01
2018-12-15T17:13:40.759Z,6.01
2018-12-15T17:16:10.416Z,5.92
2018-12-15T17:18:40.093Z,5.91
2018-12-15T17:21:09.661Z,5.87
2018-12-15T17:23:39.356Z,5.77
2018-12-15T17:26:08.923Z,5.67
2018-12-15T17:28:38.477Z,5.79
2018-12-15T17:31:08.124Z,5.80
2018-12-15T17:33:37.799Z,5.71
2018-12-15T17:36:07.489Z,5.78
2018-12-15T17:38:37.139Z,5.74
2018-12-15T17:41:06.801Z,5.76
2018-12-15T17:43:36.447Z,5.73
2018-12-15T17:46:06.098Z,5.42
2018-12-15T17:48:36.015Z,4.92
2018-12-15T17:51:05.685Z,4.90
2018-12-15T17:53:35.336Z,5.32
2018-12-15T17:56:05.039Z,5.48
2018-12-15T17:58:34.625Z,5.34
2018-12-15T18:01:04.872Z,5.16
2018-12-15T18:03:34.705Z,5.38
2018-12-15T18:06:04.443Z,5.38
2018-12-15T18:08:34.174Z,5.36
2018-12-15T18:11:03.936Z,5.45
2018-12-15T18:13:33.768Z,5.51
2018-12-15T18:16:03.439Z,5.60
2018-12-15T18:18:33.110Z,5.61
2018-12-15T18:21:02.928Z,5.65
2018-12-15T18:23:32.700Z,5.59
2018-12-15T18:26:02.356Z,5.66
2018-12-15T18:28:32.019Z,5.50
2018-12-15T18:31:01.553Z,5.54
2018-12-15T18:33:36.909Z,5.67
2018-12-15T18:36:03.124Z,5.60
2018-12-15T18:38:33.039Z,5.60
2018-12-15T18:41:02.693Z,5.70
2018-12-15T18:43:32.779Z,5.81
2018-12-15T18:46:02.511Z,5.69
2018-12-15T18:48:32.226Z,5.44
2018-12-15T18:51:01.989Z,5.23
2018-12-15T18:53:31.724Z,5.23
2018-12-15T18:56:01.439Z,5.50
2018-12-15T18:58:31.143Z,5.50
2018-12-15T19:01:00.914Z,5.09
2018-12-15T19:03:30.858Z,5.08
2018-12-15T19:06:00.648Z,5.25
2018-12-15T19:08:30.324Z,5.44
2018-12-15T19:11:00.082Z,5.33
2018-12-15T19:13:29.734Z,5.47
2018-12-15T19:15:59.408Z,5.56
2018-12-15T19:18:29.182Z,5.63
2018-12-15T19:20:58.925Z,5.63
2018-12-15T19:23:28.595Z,5.64
2018-12-15T19:25:58.275Z,5.75
2018-12-15T19:28:28.587Z,5.62
2018-12-15T19:30:59.143Z,4.57
2018-12-15T19:33:29.546Z,5.04
2018-12-15T19:36:00.202Z,5.02
2018-12-15T19:38:30.738Z,5.19
2018-12-15T19:41:01.488Z,5.27
2018-12-15T19:43:32.217Z,5.30
2018-12-15T19:46:02.874Z,5.41
2018-12-15T19:48:33.582Z,5.46
2018-12-15T19:51:04.119Z,5.60
2018-12-15T19:53:34.711Z,5.60
2018-12-15T19:56:05.070Z,5.51
2018-12-15T19:58:35.589Z,5.60
2018-12-15T20:01:06.201Z,5.77
2018-12-15T20:03:37.069Z,5.62
2018-12-15T20:06:07.880Z,5.29
2018-12-15T20:08:38.668Z,5.56
2018-12-15T20:11:09.180Z,5.61
2018-12-15T20:13:40.288Z,5.58
2018-12-15T20:16:11.105Z,5.71
2018-12-15T20:18:41.665Z,5.79
2018-12-15T20:21:12.275Z,5.92
2018-12-15T20:23:43.120Z,5.93
2018-12-15T20:26:13.465Z,5.82
2018-12-15T20:28:43.845Z,5.89
2018-12-15T20:31:14.465Z,5.58
2018-12-15T20:33:46.247Z,5.30
2018-12-15T20:36:16.750Z,5.61
2018-12-15T20:38:47.064Z,5.90
2018-12-15T20:41:17.485Z,6.06
2018-12-15T20:43:48.415Z,5.95
2018-12-15T20:46:19.004Z,6.09
2018-12-15T20:48:48.690Z,6.02
2018-12-15T20:51:19.236Z,6.06
2018-12-15T20:53:50.120Z,6.01
2018-12-15T20:56:20.564Z,6.09
2018-12-15T20:58:51.184Z,5.80
2018-12-15T21:01:21.484Z,5.74
2018-12-15T21:03:51.926Z,5.64
2018-12-15T21:06:21.987Z,5.83
2018-12-15T21:08:52.831Z,6.00
2018-12-15T21:11:24.283Z,5.81
2018-12-15T21:13:54.995Z,5.82
2018-12-15T21:16:25.366Z,5.71
2018-12-15T21:18:55.714Z,5.88
2018-12-15T21:21:26.319Z,5.94
2018-12-15T21:23:57.847Z,5.80
2018-12-15T21:26:28.449Z,5.26
2018-12-15T21:28:59.215Z,3.71
2018-12-15T21:31:29.718Z,5.74
2018-12-15T21:34:07.552Z,5.95
2018-12-15T21:36:33.364Z,5.73
2018-12-15T21:39:04.081Z,5.62
2018-12-15T21:41:34.367Z,5.48
2018-12-15T21:44:05.760Z,5.43
2018-12-15T21:46:36.102Z,5.42
2018-12-15T21:49:06.676Z,5.53
2018-12-15T21:51:37.064Z,5.78
2018-12-15T21:54:07.684Z,5.92
2018-12-15T21:56:38.423Z,5.99
2018-12-15T21:59:08.479Z,5.83
2018-12-15T22:01:39.231Z,5.51
2018-12-15T22:04:10.656Z,5.69
2018-12-15T22:06:41.404Z,5.59
2018-12-15T22:09:11.952Z,5.72
2018-12-15T22:11:42.589Z,5.91
2018-12-15T22:14:13.326Z,6.11
2018-12-15T22:16:43.859Z,5.97
2018-12-15T22:19:14.593Z,5.83
2018-12-15T22:21:44.871Z,5.90
2018-12-15T22:24:15.755Z,5.88
2018-12-15T22:26:46.176Z,6.03
2018-12-15T22:29:16.643Z,5.40
2018-12-15T22:31:46.907Z,5.25
2018-12-15T22:34:17.787Z,5.67
2018-12-15T22:36:48.376Z,5.74
2018-12-15T22:39:18.921Z,5.92
2018-12-15T22:41:49.754Z,5.99
2018-12-15T22:44:20.485Z,5.71
2018-12-15T22:46:50.994Z,5.46
2018-12-15T22:49:21.440Z,5.27
2018-12-15T22:51:52.096Z,5.41
2018-12-15T22:54:23.245Z,5.68
2018-12-15T22:56:53.843Z,5.82
2018-12-15T22:59:24.245Z,5.84
2018-12-15T23:01:54.895Z,6.00
2018-12-15T23:04:25.842Z,5.75
2018-12-15T23:06:55.911Z,5.54
2018-12-15T23:09:26.401Z,5.84
2018-12-15T23:11:57.147Z,5.90
2018-12-15T23:14:27.995Z,5.79
2018-12-15T23:16:58.219Z,5.57
2018-12-15T23:19:28.526Z,5.68
2018-12-15T23:21:58.613Z,5.37
2018-12-15T23:24:29.435Z,4.65
2018-12-15T23:26:59.774Z,4.88
2018-12-15T23:29:29.961Z,4.79
2018-12-15T23:32:00.337Z,5.12
2018-12-15T23:34:30.787Z,5.25
2018-12-15T23:37:01.279Z,5.45
2018-12-15T23:39:31.728Z,5.50
2018-12-15T23:42:02.248Z,5.65
2018-12-15T23:44:33.527Z,5.73
2018-12-15T23:47:03.945Z,5.68
2018-12-15T23:49:34.553Z,5.75
2018-12-15T23:52:04.964Z,5.72
2018-12-15T23:54:36.063Z,5.88
2018-12-15T23:57:06.691Z,5.72
2018-12-15T23:59:37.118Z,5.61
